Time;durP1;ratioP1;P1;durP2;ratioP2;P2;SDS_P1;SDS_P2;PMS_P1;PMS_P2;Temp;Humidity;BMP_temperature;BMP_pressure;BME280_temperature;BME280_humidity;BME280_pressure;Samples;Min_cycle;Max_cycle;Signal;HPM_P1;HPM_P2
2024/04/08 00:01:20;;;;;;;3.22;1.02;;;19.10;57.70;20.80;100989.00;;;;5436502;26;20228;-76
2024/04/08 00:03:49;;;;;;;1.00;0.90;;;19.10;57.80;20.80;100992.00;;;;5446139;26;20228;-77
2024/04/08 00:06:15;;;;;;;1.98;0.80;;;19.10;57.90;20.80;100989.00;;;;5424605;26;20229;-77
2024/04/08 00:08:44;;;;;;;3.10;0.80;;;19.00;57.90;20.80;100989.00;;;;5417346;26;20249;-77
2024/04/08 00:11:10;;;;;;;2.95;0.88;;;19.00;58.00;20.70;100992.00;;;;5424718;26;20241;-77
2024/04/08 00:13:41;;;;;;;1.05;0.60;;;19.00;58.10;20.70;100987.00;;;;5432415;26;20562;-76
2024/04/08 00:16:07;;;;;;;3.63;1.42;;;19.00;58.30;20.70;100985.00;;;;5441977;26;20240;-77
2024/04/08 00:18:36;;;;;;;3.00;1.10;;;19.00;58.20;20.70;100981.00;;;;5438321;26;20225;-77
2024/04/08 00:21:03;;;;;;;2.72;1.00;;;18.90;58.20;20.70;100989.00;;;;5436421;26;20296;-77
2024/04/08 00:23:32;;;;;;;2.58;0.80;;;18.90;58.30;20.70;100986.00;;;;5439079;26;20827;-77
2024/04/08 00:26:02;;;;;;;0.75;0.55;;;18.90;58.30;20.60;100990.00;;;;5442012;26;20228;-77
2024/04/08 00:28:31;;;;;;;5.65;1.02;;;18.90;58.50;20.60;100987.00;;;;5414553;26;20245;-77
2024/04/08 00:31:04;;;;;;;1.52;1.00;;;18.90;58.40;20.60;100978.00;;;;5437885;26;20327;-77
2024/04/08 00:33:33;;;;;;;2.95;0.98;;;18.90;58.70;20.60;100985.00;;;;5422460;26;20734;-77
2024/04/08 00:36:00;;;;;;;1.77;1.05;;;18.90;58.50;20.60;100988.00;;;;5447650;26;20232;-77
2024/04/08 00:38:29;;;;;;;3.42;0.95;;;18.90;58.60;20.60;100990.00;;;;5442465;26;20232;-77
2024/04/08 00:40:58;;;;;;;3.22;0.82;;;18.90;58.70;20.60;100995.00;;;;5443924;26;20297;-77
2024/04/08 00:43:27;;;;;;;1.60;0.90;;;18.90;58.80;20.60;100994.00;;;;5433316;26;20236;-77
2024/04/08 00:45:55;;;;;;;2.22;1.10;;;18.80;58.80;20.60;100992.00;;;;5433518;26;20230;-77
2024/04/08 00:48:26;;;;;;;3.53;1.00;;;18.80;58.80;20.50;100994.00;;;;5427118;26;20333;-77
2024/04/08 00:50:55;;;;;;;1.27;1.13;;;18.80;58.90;20.50;100985.00;;;;5445811;26;20308;-76
2024/04/08 00:53:25;;;;;;;1.63;1.00;;;18.80;58.90;20.50;100975.00;;;;5427288;26;20237;-77
2024/04/08 00:55:53;;;;;;;1.40;1.10;;;18.80;58.90;20.50;100981.00;;;;5438366;26;20232;-77
2024/04/08 00:58:23;;;;;;;1.55;1.00;;;18.70;58.90;20.50;100984.00;;;;5429624;26;20232;-77
2024/04/08 01:00:50;;;;;;;2.15;0.80;;;18.70;59.00;20.50;100981.00;;;;5421556;26;20341;-77
2024/04/08 01:03:19;;;;;;;1.42;1.10;;;18.70;59.10;20.50;100964.00;;;;5419342;26;20232;-76
2024/04/08 01:05:50;;;;;;;1.52;0.90;;;18.70;59.10;20.40;100982.00;;;;5441320;26;20244;-77
2024/04/08 01:08:19;;;;;;;2.58;1.15;;;18.70;59.20;20.40;100972.00;;;;5428585;26;20279;-76
2024/04/08 01:10:46;;;;;;;2.67;1.23;;;18.70;59.10;20.40;100950.00;;;;5436320;26;20243;-77
2024/04/08 01:13:14;;;;;;;2.17;0.98;;;18.70;59.20;20.40;100955.00;;;;5445117;26;20232;-77
2024/04/08 01:15:41;;;;;;;3.65;1.00;;;18.70;59.20;20.40;100959.00;;;;5442619;26;20240;-76
2024/04/08 01:18:10;;;;;;;2.70;1.38;;;18.70;59.30;20.40;100944.00;;;;5429708;26;20307;-77
2024/04/08 01:20:37;;;;;;;1.60;1.20;;;18.70;59.40;20.40;100940.00;;;;5432397;26;20251;-77
2024/04/08 01:23:15;;;;;;;1.75;1.30;;;18.70;59.40;20.30;100952.00;;;;5425572;26;20303;-77
2024/04/08 01:25:43;;;;;;;3.17;1.13;;;18.70;59.60;20.30;100959.00;;;;5428250;26;20365;-77
2024/04/08 01:28:12;;;;;;;2.00;1.08;;;18.60;59.50;20.40;100961.00;;;;5427014;26;20232;-77
2024/04/08 01:30:38;;;;;;;3.15;1.27;;;18.60;59.40;20.30;100954.00;;;;5439539;26;20352;-77
2024/04/08 01:33:07;;;;;;;2.42;1.10;;;18.60;59.50;20.30;100954.00;;;;5441951;26;20236;-77
2024/04/08 01:35:33;;;;;;;1.58;1.05;;;18.60;59.50;20.30;100942.00;;;;5455030;26;20252;-77
2024/04/08 01:38:02;;;;;;;2.90;1.80;;;18.60;59.60;20.30;100952.00;;;;5435022;26;20231;-77
2024/04/08 01:40:28;;;;;;;2.85;1.60;;;18.60;59.60;20.30;100951.00;;;;5432958;26;20369;-77
2024/04/08 01:42:59;;;;;;;2.45;1.60;;;18.60;59.70;20.30;100949.00;;;;5440410;26;20238;-77
2024/04/08 01:45:25;;;;;;;3.63;1.05;;;18.50;59.70;20.30;100943.00;;;;5439534;26;20333;-77
2024/04/08 01:47:53;;;;;;;2.80;1.48;;;18.50;59.70;20.30;100951.00;;;;5438927;26;20233;-77
2024/04/08 01:50:19;;;;;;;1.65;1.42;;;18.60;59.80;20.30;100948.00;;;;5422939;26;20241;-77
2024/04/08 01:52:48;;;;;;;2.40;1.17;;;18.50;59.80;20.30;100952.00;;;;5433815;26;20236;-77
2024/04/08 01:55:14;;;;;;;3.75;1.30;;;18.50;59.80;20.30;100945.00;;;;5439318;26;20328;-77
2024/04/08 01:57:44;;;;;;;1.45;1.20;;;18.50;59.90;20.30;100936.00;;;;5429765;26;20645;-77
2024/04/08 02:00:13;;;;;;;2.70;1.10;;;18.50;59.90;20.20;100932.00;;;;5413059;26;20355;-77
2024/04/08 02:02:39;;;;;;;1.02;0.93;;;18.50;60.10;20.30;100931.00;;;;5444572;26;20232;-77
2024/04/08 02:05:07;;;;;;;1.58;0.98;;;18.50;60.00;20.20;100928.00;;;;5424152;26;20236;-77
2024/04/08 02:07:36;;;;;;;1.77;1.40;;;18.50;60.00;20.20;100919.00;;;;5434224;26;20283;-77
2024/04/08 02:10:02;;;;;;;2.05;1.60;;;18.50;60.00;20.20;100924.00;;;;5435672;26;20568;-77
2024/04/08 02:12:31;;;;;;;1.83;1.17;;;18.40;59.90;20.20;100912.00;;;;5411312;26;20634;-77
2024/04/08 02:14:57;;;;;;;2.25;1.38;;;18.40;60.00;20.10;100909.00;;;;5436117;26;20244;-77
2024/04/08 02:17:29;;;;;;;2.65;1.70;;;18.40;59.90;20.10;100903.00;;;;5421219;26;20337;-77
2024/04/08 02:19:55;;;;;;;3.45;1.40;;;18.40;60.70;20.10;100906.00;;;;5438751;26;20227;-77
2024/04/08 02:22:24;;;;;;;3.08;1.15;;;18.40;59.90;20.10;100905.00;;;;5438227;26;20290;-77
2024/04/08 02:24:50;;;;;;;1.70;1.08;;;18.30;59.90;20.00;100909.00;;;;5424483;26;20234;-77
2024/04/08 02:27:20;;;;;;;1.80;1.27;;;18.30;59.90;20.00;100911.00;;;;5410928;26;20791;-77
2024/04/08 02:29:46;;;;;;;2.20;1.25;;;18.30;60.00;20.00;100910.00;;;;5419706;26;20221;-77
2024/04/08 02:32:15;;;;;;;2.85;1.50;;;18.30;60.00;20.00;100913.00;;;;5438543;26;20236;-77
2024/04/08 02:34:44;;;;;;;3.97;1.65;;;18.20;60.10;19.90;100909.00;;;;5424508;26;20333;-77
2024/04/08 02:37:12;;;;;;;4.00;1.58;;;18.20;60.10;19.90;100911.00;;;;5446707;26;20254;-76
2024/04/08 02:39:39;;;;;;;2.65;1.20;;;18.20;60.10;19.90;100911.00;;;;5435280;26;20339;-77
2024/04/08 02:42:08;;;;;;;3.53;1.50;;;18.20;60.80;19.90;100916.00;;;;5440390;26;20236;-77
2024/04/08 02:44:34;;;;;;;1.42;1.23;;;18.10;60.10;19.80;100912.00;;;;5436146;26;20240;-77
2024/04/08 02:47:03;;;;;;;1.60;1.33;;;18.10;60.90;19.80;100903.00;;;;5447499;26;20276;-77
2024/04/08 02:49:29;;;;;;;1.63;1.17;;;18.10;60.10;19.80;100902.00;;;;5441168;26;20694;-76
2024/04/08 02:52:01;;;;;;;1.40;1.23;;;18.00;60.10;19.70;100896.00;;;;5428068;26;20274;-77
2024/04/08 02:54:27;;;;;;;3.88;1.10;;;18.00;60.30;19.70;100902.00;;;;5443026;26;20233;-77
2024/04/08 02:56:55;;;;;;;2.47;1.20;;;18.00;60.20;19.70;100900.00;;;;5449943;26;20337;-77
2024/04/08 02:59:23;;;;;;;2.05;1.38;;;18.00;60.50;19.70;100893.00;;;;5436793;26;20324;-77
2024/04/08 03:01:52;;;;;;;2.38;1.38;;;18.00;60.30;19.70;100880.00;;;;5443051;26;20335;-77
2024/04/08 03:04:18;;;;;;;2.40;1.75;;;17.90;60.40;19.70;100879.00;;;;5434250;26;20358;-76
2024/04/08 03:06:46;;;;;;;1.80;1.40;;;17.90;60.50;19.60;100880.00;;;;5443215;26;20252;-77
2024/04/08 03:09:15;;;;;;;2.10;1.42;;;17.90;60.60;19.60;100882.00;;;;5435420;26;20332;-77
2024/04/08 03:11:44;;;;;;;2.85;1.90;;;17.80;60.60;19.60;100877.00;;;;5442672;26;20235;-77
2024/04/08 03:14:11;;;;;;;1.50;1.20;;;17.80;60.60;19.60;100886.00;;;;5433443;26;20292;-77
2024/04/08 03:16:43;;;;;;;4.30;1.60;;;17.80;60.70;19.60;100892.00;;;;5448741;26;20232;-77
2024/04/08 03:19:09;;;;;;;2.38;1.27;;;17.80;60.80;19.60;100901.00;;;;5448403;26;20299;-77
2024/04/08 03:21:38;;;;;;;3.08;1.58;;;17.80;60.90;19.60;100902.00;;;;5434288;26;20271;-77
2024/04/08 03:24:04;;;;;;;2.10;1.27;;;17.80;61.00;19.60;100900.00;;;;5427210;26;20313;-77
2024/04/08 03:26:36;;;;;;;1.50;1.38;;;17.80;61.00;19.50;100902.00;;;;5432217;26;20243;-77
2024/04/08 03:29:02;;;;;;;2.17;1.60;;;17.80;61.20;19.50;100903.00;;;;5447631;26;20232;-77
2024/04/08 03:31:31;;;;;;;2.50;1.75;;;17.80;61.10;19.60;100902.00;;;;5433653;26;20232;-77
2024/04/08 03:33:57;;;;;;;3.05;1.50;;;17.80;61.20;19.60;100903.00;;;;5447001;26;20350;-77
2024/04/08 03:36:26;;;;;;;2.85;1.67;;;17.80;61.30;19.60;100898.00;;;;5428058;26;20248;-77
2024/04/08 03:38:54;;;;;;;4.57;1.67;;;17.80;61.30;19.60;100875.00;;;;5434194;26;20333;-77
2024/04/08 03:41:23;;;;;;;1.88;1.52;;;17.80;61.30;19.60;100875.00;;;;5414127;26;20352;-77
2024/04/08 03:43:54;;;;;;;2.60;1.65;;;17.80;61.40;19.50;100875.00;;;;5441605;26;20843;-77
2024/04/08 03:46:20;;;;;;;1.52;1.27;;;17.80;61.50;19.60;100886.00;;;;5441924;26;20229;-77
2024/04/08 03:48:49;;;;;;;2.60;1.60;;;17.80;61.40;19.50;100878.00;;;;5447680;26;20325;-77
2024/04/08 03:51:16;;;;;;;2.35;1.58;;;17.80;61.50;19.50;100879.00;;;;5437097;26;20343;-77
2024/04/08 03:53:45;;;;;;;2.55;1.95;;;17.80;61.60;19.50;100887.00;;;;5437586;26;20229;-77
2024/04/08 03:56:12;;;;;;;2.08;1.80;;;17.80;61.60;19.50;100878.00;;;;5435274;26;20271;-77
2024/04/08 03:58:42;;;;;;;2.20;1.40;;;17.80;61.60;19.50;100875.00;;;;5449576;26;20650;-77
2024/04/08 04:01:11;;;;;;;2.65;1.77;;;17.80;61.60;19.50;100878.00;;;;5445052;26;20232;-77
2024/04/08 04:03:40;;;;;;;2.47;1.60;;;17.80;61.70;19.50;100881.00;;;;5433106;26;20275;-77
2024/04/08 04:06:06;;;;;;;4.15;1.73;;;17.80;61.70;19.50;100868.00;;;;5435409;26;20240;-77
2024/04/08 04:08:35;;;;;;;2.95;1.85;;;17.80;61.70;19.50;100868.00;;;;5436535;26;20238;-77
2024/04/08 04:11:01;;;;;;;4.18;1.50;;;17.80;61.60;19.50;100874.00;;;;5422173;26;20267;-77
2024/04/08 04:13:30;;;;;;;2.20;1.67;;;17.80;61.70;19.50;100873.00;;;;5442297;26;20240;-77
2024/04/08 04:15:56;;;;;;;4.65;1.88;;;17.80;61.60;19.50;100844.00;;;;5439102;26;20650;-77
2024/04/08 04:18:28;;;;;;;3.08;1.88;;;17.70;61.50;19.40;100821.00;;;;5446572;26;20224;-77
2024/04/08 04:20:57;;;;;;;2.40;1.77;;;17.70;61.70;19.40;100813.00;;;;5430520;26;20283;-77
2024/04/08 04:23:23;;;;;;;2.58;1.70;;;17.70;61.40;19.40;100815.00;;;;5429179;26;20335;-77
2024/04/08 04:25:55;;;;;;;1.77;1.42;;;17.70;61.40;19.40;100817.00;;;;5425135;26;20233;-78
2024/04/08 04:28:21;;;;;;;1.55;1.45;;;17.70;61.50;19.30;100825.00;;;;5439367;26;20293;-77
2024/04/08 04:30:56;;;;;;;1.50;1.33;;;17.60;61.40;19.20;100805.00;;;;5437053;26;20236;-77
2024/04/08 04:33:25;;;;;;;2.72;1.75;;;17.60;61.60;19.20;100823.00;;;;5420189;26;20229;-77
2024/04/08 04:35:55;;;;;;;3.15;1.60;;;17.60;61.40;19.20;100835.00;;;;5434068;26;20228;-77
2024/04/08 04:38:21;;;;;;;2.25;1.30;;;17.50;61.30;19.20;100828.00;;;;5444704;26;20236;-77
2024/04/08 04:40:50;;;;;;;3.65;1.42;;;17.50;61.30;19.10;100843.00;;;;5446421;26;20329;-77
2024/04/08 04:43:16;;;;;;;2.72;1.45;;;17.40;61.40;19.10;100836.00;;;;5440223;26;20620;-77
2024/04/08 04:45:45;;;;;;;4.15;1.77;;;17.40;61.40;19.10;100832.00;;;;5430126;26;20307;-77
2024/04/08 04:48:11;;;;;;;2.13;1.30;;;17.40;61.40;19.00;100827.00;;;;5435692;26;20239;-77
2024/04/08 04:50:42;;;;;;;2.42;1.58;;;17.30;61.30;19.00;100828.00;;;;5430225;26;20664;-77
2024/04/08 04:53:08;;;;;;;2.75;1.45;;;17.30;61.50;19.00;100830.00;;;;5422029;26;20232;-77
2024/04/08 04:55:37;;;;;;;2.92;1.35;;;17.30;61.40;18.90;100829.00;;;;5424245;26;20859;-76
2024/04/08 04:58:03;;;;;;;4.00;1.80;;;17.20;61.50;18.90;100818.00;;;;5432650;26;20280;-77
2024/04/08 05:00:34;;;;;;;2.42;1.58;;;17.20;61.60;18.90;100826.00;;;;5438677;26;20741;-77
2024/04/08 05:03:00;;;;;;;3.08;1.65;;;17.20;61.70;18.90;100844.00;;;;5423137;26;20236;-77
2024/04/08 05:05:30;;;;;;;2.13;1.67;;;17.20;61.70;18.80;100856.00;;;;5435076;26;20491;-77
2024/04/08 05:07:58;;;;;;;2.65;1.88;;;17.10;61.80;18.80;100851.00;;;;5434136;26;20727;-77
2024/04/08 05:10:27;;;;;;;2.03;1.65;;;17.10;62.70;18.80;100851.00;;;;5437587;26;20300;-77
2024/04/08 05:12:53;;;;;;;2.38;1.67;;;17.10;61.90;18.80;100857.00;;;;5411441;26;20356;-77
2024/04/08 05:15:22;;;;;;;2.00;1.55;;;17.10;62.10;18.80;100844.00;;;;5423033;26;20240;-77
2024/04/08 05:17:48;;;;;;;1.77;1.33;;;17.10;62.20;18.80;100864.00;;;;5417660;26;20237;-76
2024/04/08 05:20:16;;;;;;;1.80;1.45;;;17.10;62.40;18.80;100873.00;;;;5432996;26;20727;-76
2024/04/08 05:22:47;;;;;;;3.22;1.63;;;17.10;62.50;18.80;100871.00;;;;5442790;26;20232;-76
2024/04/08 05:25:18;;;;;;;2.55;1.75;;;17.10;62.60;18.80;100872.00;;;;5429817;26;20271;-77
2024/04/08 05:27:45;;;;;;;8.13;1.77;;;17.10;62.70;18.80;100879.00;;;;5429559;26;20555;-77
2024/04/08 05:30:13;;;;;;;2.90;1.67;;;17.10;62.60;18.80;100878.00;;;;5434473;26;20306;-77
2024/04/08 05:32:39;;;;;;;2.63;1.85;;;17.10;62.60;18.80;100878.00;;;;5426287;26;20232;-77
2024/04/08 05:35:10;;;;;;;2.00;1.60;;;17.10;62.50;18.80;100888.00;;;;5435525;26;20846;-77
2024/04/08 05:37:38;;;;;;;2.58;2.10;;;17.10;63.20;18.80;100895.00;;;;5437641;26;20300;-77
2024/04/08 05:40:11;;;;;;;2.30;1.73;;;17.10;62.50;18.80;100903.00;;;;5418831;26;20225;-78
2024/04/08 05:42:40;;;;;;;2.42;1.42;;;17.10;62.60;18.80;100909.00;;;;5428915;26;20252;-78
2024/04/08 05:45:09;;;;;;;1.55;1.33;;;17.00;62.50;18.80;100919.00;;;;5427462;26;20333;-77
2024/04/08 05:47:35;;;;;;;2.22;1.73;;;17.00;62.50;18.80;100919.00;;;;5420951;26;20332;-77
2024/04/08 05:50:04;;;;;;;2.55;1.90;;;17.00;62.50;18.80;100924.00;;;;5442644;26;21127;-76
2024/04/08 05:52:30;;;;;;;2.60;1.60;;;17.00;62.60;18.80;100920.00;;;;5410684;26;20264;-77
2024/04/08 05:54:59;;;;;;;3.63;1.83;;;17.00;62.70;18.80;100900.00;;;;5420440;26;20276;-78
2024/04/08 05:57:25;;;;;;;2.03;1.83;;;17.00;62.80;18.80;100880.00;;;;5440811;26;20231;-79
2024/04/08 05:59:56;;;;;;;3.03;1.75;;;17.00;62.80;18.70;100862.00;;;;5433618;26;20288;-78
2024/04/08 06:02:22;;;;;;;11.88;2.55;;;17.00;62.80;18.80;100854.00;;;;5476586;21;20255;-78
2024/04/08 06:04:56;;;;;;;2.08;1.70;;;17.00;62.80;18.70;100848.00;;;;5406417;26;20279;-77
2024/04/08 06:07:22;;;;;;;4.90;1.70;;;17.00;63.00;18.80;100865.00;;;;5407668;26;20236;-76
2024/04/08 06:09:51;;;;;;;2.10;1.90;;;17.00;63.10;18.80;100864.00;;;;5406408;26;20272;-78
2024/04/08 06:12:17;;;;;;;3.28;2.47;;;17.10;63.20;18.90;100885.00;;;;5381023;26;20222;-78
2024/04/08 06:14:45;;;;;;;3.13;2.03;;;17.10;63.40;18.90;100878.00;;;;5377148;26;20242;-78
2024/04/08 06:17:14;;;;;;;2.05;1.60;;;17.10;63.50;18.90;100876.00;;;;5384704;26;20365;-78
2024/04/08 06:19:43;;;;;;;2.13;1.85;;;17.10;63.50;19.00;100883.00;;;;5373437;26;20238;-78
2024/04/08 06:22:09;;;;;;;3.75;2.00;;;17.20;63.50;19.00;100886.00;;;;5396737;26;20237;-78
2024/04/08 06:24:37;;;;;;;4.90;2.25;;;17.20;63.60;19.00;100884.00;;;;5372883;26;20234;-78
2024/04/08 06:27:04;;;;;;;4.38;2.35;;;17.20;63.50;19.10;100883.00;;;;5375470;26;20278;-78
2024/04/08 06:29:32;;;;;;;3.75;1.92;;;17.30;63.70;19.10;100880.00;;;;5384206;26;20609;-78
2024/04/08 06:31:59;;;;;;;2.80;2.20;;;17.30;63.70;19.10;100867.00;;;;5373927;26;20241;-78
2024/04/08 06:34:30;;;;;;;2.28;1.80;;;17.30;63.70;19.20;100859.00;;;;5374762;26;20238;-78
2024/04/08 06:36:56;;;;;;;2.22;2.03;;;17.40;63.80;19.20;100869.00;;;;5372866;26;20246;-78
2024/04/08 06:39:25;;;;;;;3.40;2.05;;;17.40;63.80;19.30;100879.00;;;;5389360;26;20245;-78
2024/04/08 06:41:51;;;;;;;3.45;2.45;;;17.40;63.80;19.30;100889.00;;;;5373441;26;20331;-78
2024/04/08 06:44:19;;;;;;;2.17;1.98;;;17.50;63.80;19.30;100897.00;;;;5388557;26;20747;-79
2024/04/08 06:46:45;;;;;;;3.20;2.22;;;17.50;63.80;19.40;100905.00;;;;5392873;26;20233;-78
2024/04/08 06:49:14;;;;;;;5.45;2.25;;;17.60;63.90;19.40;100905.00;;;;5398326;26;20844;-78
2024/04/08 06:51:43;;;;;;;2.72;2.08;;;17.60;64.00;19.40;100900.00;;;;5369869;26;20302;-78
2024/04/08 06:54:11;;;;;;;3.67;2.47;;;17.60;64.10;19.50;100898.00;;;;5357933;26;20298;-78
2024/04/08 06:56:38;;;;;;;2.40;1.95;;;17.70;64.10;19.60;100901.00;;;;5376139;26;20238;-78
2024/04/08 06:59:07;;;;;;;3.15;2.53;;;17.80;64.20;19.70;100902.00;;;;5375156;26;20238;-78
2024/04/08 07:01:33;;;;;;;5.00;2.30;;;17.80;64.20;19.80;100900.00;;;;5372747;26;20308;-79
2024/04/08 07:04:02;;;;;;;8.32;2.78;;;17.90;64.20;19.80;100897.00;;;;5372268;26;20269;-78
2024/04/08 07:06:28;;;;;;;4.65;2.38;;;18.00;64.20;19.90;100906.00;;;;5374433;26;20246;-78
2024/04/08 07:08:59;;;;;;;3.90;2.03;;;18.00;64.10;19.90;100914.00;;;;5369576;26;20238;-78
2024/04/08 07:11:26;;;;;;;4.38;2.80;;;18.10;64.30;20.00;100924.00;;;;5368687;26;20841;-79
2024/04/08 07:13:55;;;;;;;2.95;2.50;;;18.20;64.20;20.10;100923.00;;;;5369387;26;20408;-78
2024/04/08 07:16:21;;;;;;;3.85;2.55;;;18.20;64.30;20.20;100915.00;;;;5391142;26;20297;-78
2024/04/08 07:18:51;;;;;;;3.35;2.65;;;18.30;64.40;20.30;100914.00;;;;5373793;26;20230;-79
2024/04/08 07:21:17;;;;;;;3.85;2.70;;;18.40;64.50;20.40;100919.00;;;;5383753;26;20292;-77
2024/04/08 07:23:45;;;;;;;3.63;2.42;;;18.50;64.50;20.50;100909.00;;;;5373361;26;20272;-78
2024/04/08 07:26:14;;;;;;;2.88;2.22;;;18.50;64.30;20.50;100910.00;;;;5375467;26;20558;-78
2024/04/08 07:28:44;;;;;;;4.70;2.47;;;18.60;64.10;20.60;100908.00;;;;5375366;26;20261;-79
2024/04/08 07:31:10;;;;;;;3.85;2.25;;;18.70;64.00;20.70;100903.00;;;;5376587;26;20238;-79
2024/04/08 07:33:38;;;;;;;5.72;2.45;;;18.80;63.90;20.70;100904.00;;;;5378602;26;20265;-79
2024/04/08 07:36:05;;;;;;;4.15;2.70;;;18.80;63.90;20.80;100910.00;;;;5380411;26;20298;-79
2024/04/08 07:38:34;;;;;;;3.17;2.47;;;18.90;63.80;20.90;100901.00;;;;5381221;26;20321;-78
2024/04/08 07:41:00;;;;;;;3.35;2.30;;;18.90;63.70;20.90;100901.00;;;;5376781;26;20234;-78
2024/04/08 07:43:33;;;;;;;4.10;2.50;;;19.00;63.70;20.90;100898.00;;;;5377906;26;20227;-79
2024/04/08 07:45:59;;;;;;;4.40;2.13;;;19.10;63.50;21.00;100896.00;;;;5377961;26;20357;-79
2024/04/08 07:48:27;;;;;;;4.07;2.30;;;19.10;63.30;21.10;100885.00;;;;5377148;26;20230;-79
2024/04/08 07:50:56;;;;;;;3.88;2.40;;;19.20;63.20;21.10;100893.00;;;;5377058;26;20234;-79
2024/04/08 07:53:26;;;;;;;4.15;2.30;;;19.20;63.20;21.20;100882.00;;;;5383739;26;20241;-78
2024/04/08 07:55:53;;;;;;;3.88;2.60;;;19.30;63.20;21.20;100878.00;;;;5383783;26;20230;-78
2024/04/08 07:58:21;;;;;;;4.07;2.53;;;19.40;63.00;21.30;100882.00;;;;5378166;26;20319;-79
2024/04/08 08:00:58;;;;;;;3.55;2.42;;;19.40;62.80;21.20;100891.00;;;;5375776;26;21159;-78
2024/04/08 08:03:27;;;;;;;3.13;2.47;;;19.40;62.80;21.40;100874.00;;;;5377537;26;20238;-79
2024/04/08 08:05:54;;;;;;;3.47;2.60;;;19.50;62.70;21.40;100878.00;;;;5376788;26;20265;-78
2024/04/08 08:08:23;;;;;;;4.15;2.47;;;19.50;62.60;21.50;100866.00;;;;5377408;26;20230;-76
2024/04/08 08:10:51;;;;;;;3.53;1.85;;;19.60;62.60;21.50;100856.00;;;;5406063;26;20658;-76
2024/04/08 08:13:20;;;;;;;3.90;2.53;;;19.60;62.50;21.60;100855.00;;;;5386176;26;20242;-76
2024/04/08 08:15:57;;;;;;;3.55;2.40;;;19.70;62.60;21.60;100858.00;;;;5376605;26;20238;-76
2024/04/08 08:18:29;;;;;;;3.30;2.00;;;19.70;62.70;21.80;100853.00;;;;5377129;26;20233;-76
2024/04/08 08:20:55;;;;;;;3.58;1.98;;;19.80;62.50;21.90;100846.00;;;;5376446;26;20951;-77
2024/04/08 08:23:24;;;;;;;5.20;2.45;;;19.90;62.20;21.90;100838.00;;;;5378357;26;20234;-77
2024/04/08 08:25:53;;;;;;;2.95;2.20;;;20.00;62.00;22.00;100834.00;;;;5377101;26;20234;-78
2024/04/08 08:28:21;;;;;;;3.33;2.20;;;20.00;61.90;22.00;100822.00;;;;5397455;26;20325;-78
2024/04/08 08:30:48;;;;;;;2.92;2.20;;;20.10;61.90;22.10;100823.00;;;;5354225;26;20235;-78
2024/04/08 08:33:16;;;;;;;4.15;2.38;;;20.20;61.80;22.10;100819.00;;;;5375864;26;20273;-78
2024/04/08 08:35:48;;;;;;;3.47;2.22;;;20.20;61.60;22.20;100826.00;;;;5376883;26;20303;-78
2024/04/08 08:38:14;;;;;;;3.42;2.47;;;20.30;61.50;22.30;100818.00;;;;5375965;26;20340;-78
2024/04/08 08:40:46;;;;;;;2.50;1.80;;;20.30;61.50;22.30;100817.00;;;;5377063;26;20230;-78
2024/04/08 08:43:14;;;;;;;3.83;2.08;;;20.40;61.60;22.40;100804.00;;;;5377180;26;20246;-77
2024/04/08 08:45:47;;;;;;;3.55;2.13;;;20.40;61.50;22.40;100805.00;;;;5402854;26;20272;-78
2024/04/08 08:48:14;;;;;;;3.00;2.00;;;20.50;61.30;22.50;100805.00;;;;5411945;26;20252;-78
2024/04/08 08:50:45;;;;;;;4.28;2.47;;;20.60;61.20;22.50;100805.00;;;;5383912;26;20775;-78
2024/04/08 08:53:14;;;;;;;2.80;1.90;;;20.60;61.10;22.60;100815.00;;;;5376904;26;20238;-78
2024/04/08 08:55:43;;;;;;;6.25;3.30;;;20.70;61.10;22.70;100802.00;;;;5376666;26;20305;-78
2024/04/08 08:58:14;;;;;;;2.97;2.58;;;20.80;61.20;22.80;100812.00;;;;5377231;26;20731;-77
2024/04/08 09:00:40;;;;;;;2.38;2.08;;;20.90;61.10;22.90;100822.00;;;;5376420;26;20238;-78
2024/04/08 09:03:15;;;;;;;4.18;2.40;;;20.90;61.00;22.90;100831.00;;;;5377562;26;20655;-78
2024/04/08 09:05:42;;;;;;;3.30;2.15;;;21.00;60.90;23.00;100830.00;;;;5376326;26;20226;-78
2024/04/08 09:08:11;;;;;;;3.40;2.28;;;21.10;60.90;23.10;100832.00;;;;5377223;26;20222;-78
2024/04/08 09:10:45;;;;;;;2.80;2.45;;;21.20;60.80;23.10;100820.00;;;;5406923;26;20746;-78
2024/04/08 09:13:21;;;;;;;3.65;2.47;;;21.30;60.50;23.20;100816.00;;;;5412955;26;20284;-78
2024/04/08 09:15:49;;;;;;;3.22;2.47;;;21.40;60.50;23.30;100803.00;;;;5379521;26;20339;-78
2024/04/08 09:18:19;;;;;;;2.40;2.20;;;21.50;60.40;23.40;100815.00;;;;5376857;26;20252;-77
2024/04/08 09:20:46;;;;;;;5.05;2.47;;;21.50;60.10;23.40;100807.00;;;;5376228;26;20653;-78
2024/04/08 09:23:15;;;;;;;3.83;2.20;;;21.60;59.90;23.50;100814.00;;;;5376307;26;20331;-78
2024/04/08 09:25:44;;;;;;;4.70;2.60;;;21.60;59.80;23.50;100820.00;;;;5376929;26;20230;-78
2024/04/08 09:28:14;;;;;;;2.85;1.95;;;21.70;59.70;23.60;100826.00;;;;5376959;26;20230;-78
2024/04/08 09:30:41;;;;;;;3.30;2.15;;;21.70;59.50;23.70;100827.00;;;;5376701;26;20342;-78
2024/04/08 09:33:13;;;;;;;2.60;2.15;;;21.80;59.40;23.80;100834.00;;;;5376405;26;20268;-78
2024/04/08 09:35:41;;;;;;;3.38;2.75;;;21.90;59.50;23.90;100826.00;;;;5377234;26;20267;-78
2024/04/08 09:38:12;;;;;;;2.58;1.90;;;22.00;59.60;24.00;100820.00;;;;5376610;26;20226;-77
2024/04/08 09:40:39;;;;;;;3.38;1.90;;;22.00;59.40;24.10;100814.00;;;;5375336;26;20771;-77
2024/04/08 09:43:11;;;;;;;3.47;2.38;;;22.20;59.40;24.20;100816.00;;;;5376145;26;20272;-77
2024/04/08 09:45:38;;;;;;;2.78;2.10;;;22.30;59.40;24.30;100812.00;;;;5374316;26;20361;-77
2024/04/08 09:48:12;;;;;;;2.60;1.90;;;22.40;59.30;24.40;100812.00;;;;5375519;26;20260;-77
2024/04/08 09:50:41;;;;;;;4.85;2.60;;;22.50;59.00;24.40;100805.00;;;;5347386;26;20296;-77
2024/04/08 09:53:11;;;;;;;3.03;2.10;;;22.60;58.90;24.60;100807.00;;;;5374600;26;20276;-77
2024/04/08 09:55:40;;;;;;;2.95;2.08;;;22.70;58.80;24.70;100797.00;;;;5374902;26;20733;-78
2024/04/08 09:58:16;;;;;;;3.92;2.60;;;22.80;58.70;24.70;100785.00;;;;5345095;26;20670;-78
2024/04/08 10:00:45;;;;;;;3.35;2.45;;;22.80;58.40;24.70;100777.00;;;;5375045;26;20602;-77
2024/04/08 10:03:19;;;;;;;3.05;2.13;;;22.90;58.10;24.80;100788.00;;;;5374617;26;20230;-77
2024/04/08 10:05:46;;;;;;;2.95;2.50;;;23.00;58.10;24.90;100796.00;;;;5374026;26;20608;-77
2024/04/08 10:08:15;;;;;;;2.70;2.03;;;23.00;57.70;24.90;100793.00;;;;5373833;26;20273;-77
2024/04/08 10:10:42;;;;;;;6.07;1.80;;;23.10;57.60;24.90;100792.00;;;;5401059;26;20367;-77
2024/04/08 10:13:13;;;;;;;2.20;1.65;;;23.10;57.50;24.90;100791.00;;;;5410933;26;20263;-77
2024/04/08 10:15:39;;;;;;;2.20;1.73;;;23.10;57.40;24.90;100794.00;;;;5380013;26;20235;-77
2024/04/08 10:18:09;;;;;;;3.13;1.75;;;23.10;57.30;24.90;100795.00;;;;5375193;26;20214;-77
2024/04/08 10:20:41;;;;;;;4.15;1.73;;;23.10;57.00;24.90;100783.00;;;;5381224;26;20276;-77
2024/04/08 10:23:09;;;;;;;4.03;1.95;;;23.20;57.30;25.10;100787.00;;;;5410454;26;20284;-77
2024/04/08 10:25:37;;;;;;;2.67;1.85;;;23.20;57.10;25.10;100778.00;;;;5381114;26;20334;-77
2024/04/08 10:28:09;;;;;;;2.75;2.20;;;23.30;57.00;25.20;100770.00;;;;5373344;26;20234;-77
2024/04/08 10:30:39;;;;;;;1.80;1.60;;;23.30;57.10;25.20;100776.00;;;;5375280;26;20298;-77
2024/04/08 10:33:10;;;;;;;2.08;1.88;;;23.40;56.70;25.40;100782.00;;;;5375355;26;20330;-77
2024/04/08 10:35:36;;;;;;;3.70;2.30;;;23.50;56.80;25.50;100779.00;;;;5374896;26;20327;-78
2024/04/08 10:38:06;;;;;;;3.05;2.10;;;23.60;56.80;25.50;100772.00;;;;5374651;26;20246;-78
2024/04/08 10:40:32;;;;;;;2.55;1.85;;;23.60;56.70;25.60;100770.00;;;;5375060;26;20284;-77
2024/04/08 10:43:01;;;;;;;3.80;1.85;;;23.70;56.70;25.70;100766.00;;;;5375389;26;20234;-78
2024/04/08 10:45:27;;;;;;;4.22;2.20;;;23.80;56.50;25.80;100778.00;;;;5383008;26;20312;-78
2024/04/08 10:48:03;;;;;;;2.50;2.22;;;23.90;56.30;25.70;100783.00;;;;5375028;26;20257;-78
2024/04/08 10:50:30;;;;;;;3.80;2.03;;;23.90;55.70;25.80;100781.00;;;;5375081;26;20234;-78
2024/04/08 10:52:59;;;;;;;2.60;2.05;;;24.00;55.80;25.80;100787.00;;;;5377970;26;20233;-78